sensor_id;sensor_type;location;lat;lon;timestamp;temperature;humidity
74488;DHT22;63019;51.080;13.642;2024-02-04T08:52:31;10.10;99.90
74488;DHT22;63019;51.080;13.642;2024-02-04T08:56:00;10.10;99.90
74488;DHT22;63019;51.080;13.642;2024-02-04T09:02:11;10.20;99.90
74488;DHT22;63019;51.080;13.642;2024-02-04T09:03:37;10.10;99.90
74488;DHT22;63019;51.080;13.642;2024-02-04T09:05:38;10.10;99.90
74488;DHT22;63019;51.080;13.642;2024-02-04T09:06:42;10.10;99.90
74488;DHT22;63019;51.080;13.642;2024-02-04T09:13:19;9.90;99.90
74488;DHT22;63019;51.080;13.642;2024-02-04T09:18:19;9.70;99.90
74488;DHT22;63019;51.080;13.642;2024-02-04T09:22:24;9.60;99.90
74488;DHT22;63019;51.080;13.642;2024-02-04T09:24:45;9.60;99.90
74488;DHT22;63019;51.080;13.642;2024-02-04T09:29:13;9.50;99.90
74488;DHT22;63019;51.080;13.642;2024-02-04T09:33:55;9.50;99.90
74488;DHT22;63019;51.080;13.642;2024-02-04T09:38:05;9.50;99.90
74488;DHT22;63019;51.080;13.642;2024-02-04T09:39:23;9.50;99.90
74488;DHT22;63019;51.080;13.642;2024-02-04T10:15:31;9.60;99.90
74488;DHT22;63019;51.080;13.642;2024-02-04T12:55:30;10.50;99.90
74488;DHT22;63019;51.080;13.642;2024-02-04T12:56:46;10.50;99.90
74488;DHT22;63019;51.080;13.642;2024-02-04T12:57:48;10.50;99.90
74488;DHT22;63019;51.080;13.642;2024-02-04T12:58:50;10.50;99.90
74488;DHT22;63019;51.080;13.642;2024-02-04T12:59:52;10.50;99.90
74488;DHT22;63019;51.080;13.642;2024-02-04T13:01:00;10.50;99.90
74488;DHT22;63019;51.080;13.642;2024-02-04T13:02:09;10.50;99.90
74488;DHT22;63019;51.080;13.642;2024-02-04T13:03:17;10.50;99.90
74488;DHT22;63019;51.080;13.642;2024-02-04T13:04:19;10.50;99.90
74488;DHT22;63019;51.080;13.642;2024-02-04T13:05:25;10.50;99.90
74488;DHT22;63019;51.080;13.642;2024-02-04T13:06:27;10.60;99.90
74488;DHT22;63019;51.080;13.642;2024-02-04T13:07:29;10.60;99.90
74488;DHT22;63019;51.080;13.642;2024-02-04T13:08:31;10.60;99.90
74488;DHT22;63019;51.080;13.642;2024-02-04T13:09:33;10.60;99.90
74488;DHT22;63019;51.080;13.642;2024-02-04T13:10:35;10.60;99.90
74488;DHT22;63019;51.080;13.642;2024-02-04T13:11:38;10.60;99.90
74488;DHT22;63019;51.080;13.642;2024-02-04T13:12:40;10.70;99.90
74488;DHT22;63019;51.080;13.642;2024-02-04T13:13:41;10.70;99.90
74488;DHT22;63019;51.080;13.642;2024-02-04T13:14:43;10.70;99.90
74488;DHT22;63019;51.080;13.642;2024-02-04T13:15:46;10.70;99.90
74488;DHT22;63019;51.080;13.642;2024-02-04T13:16:48;10.70;99.90
74488;DHT22;63019;51.080;13.642;2024-02-04T13:17:50;10.70;99.90
74488;DHT22;63019;51.080;13.642;2024-02-04T13:18:52;10.70;99.90
74488;DHT22;63019;51.080;13.642;2024-02-04T13:19:55;10.70;99.90
74488;DHT22;63019;51.080;13.642;2024-02-04T13:20:57;10.70;99.90
74488;DHT22;63019;51.080;13.642;2024-02-04T13:21:59;10.70;99.90
74488;DHT22;63019;51.080;13.642;2024-02-04T13:23:00;10.70;99.90
74488;DHT22;63019;51.080;13.642;2024-02-04T13:24:06;10.70;99.90
74488;DHT22;63019;51.080;13.642;2024-02-04T13:25:08;10.70;99.90
74488;DHT22;63019;51.080;13.642;2024-02-04T13:26:10;10.70;99.90
74488;DHT22;63019;51.080;13.642;2024-02-04T13:27:13;10.60;99.90
74488;DHT22;63019;51.080;13.642;2024-02-04T13:28:15;10.60;99.90
74488;DHT22;63019;51.080;13.642;2024-02-04T13:29:17;10.60;99.90
74488;DHT22;63019;51.080;13.642;2024-02-04T13:30:19;10.60;99.90
74488;DHT22;63019;51.080;13.642;2024-02-04T13:31:21;10.50;99.90
74488;DHT22;63019;51.080;13.642;2024-02-04T13:32:23;10.50;99.90
74488;DHT22;63019;51.080;13.642;2024-02-04T13:33:25;10.50;99.90
74488;DHT22;63019;51.080;13.642;2024-02-04T13:34:27;10.50;99.90
74488;DHT22;63019;51.080;13.642;2024-02-04T13:35:29;10.50;99.90
74488;DHT22;63019;51.080;13.642;2024-02-04T13:36:32;10.50;99.90
74488;DHT22;63019;51.080;13.642;2024-02-04T13:37:41;10.50;99.90
74488;DHT22;63019;51.080;13.642;2024-02-04T13:38:44;10.50;99.90
74488;DHT22;63019;51.080;13.642;2024-02-04T13:39:49;10.50;99.90
74488;DHT22;63019;51.080;13.642;2024-02-04T13:40:52;10.50;99.90
74488;DHT22;63019;51.080;13.642;2024-02-04T13:41:54;10.50;99.90
74488;DHT22;63019;51.080;13.642;2024-02-04T13:42:56;10.50;99.90
74488;DHT22;63019;51.080;13.642;2024-02-04T13:43:58;10.50;99.90
74488;DHT22;63019;51.080;13.642;2024-02-04T13:45:00;10.50;99.90
74488;DHT22;63019;51.080;13.642;2024-02-04T13:46:03;10.50;99.90
74488;DHT22;63019;51.080;13.642;2024-02-04T13:47:05;10.50;99.90
74488;DHT22;63019;51.080;13.642;2024-02-04T13:48:08;10.50;99.90
74488;DHT22;63019;51.080;13.642;2024-02-04T13:49:10;10.50;99.90
74488;DHT22;63019;51.080;13.642;2024-02-04T13:50:14;10.50;99.90
74488;DHT22;63019;51.080;13.642;2024-02-04T13:51:17;10.50;99.90
74488;DHT22;63019;51.080;13.642;2024-02-04T13:52:38;10.50;99.90
74488;DHT22;63019;51.080;13.642;2024-02-04T13:53:40;10.50;99.90
74488;DHT22;63019;51.080;13.642;2024-02-04T13:54:42;10.50;99.90
74488;DHT22;63019;51.080;13.642;2024-02-04T13:55:43;10.50;99.90
74488;DHT22;63019;51.080;13.642;2024-02-04T13:56:47;10.50;99.90
74488;DHT22;63019;51.080;13.642;2024-02-04T13:57:49;10.40;99.90
74488;DHT22;63019;51.080;13.642;2024-02-04T13:58:50;10.40;99.90
74488;DHT22;63019;51.080;13.642;2024-02-04T13:59:52;10.40;99.90
74488;DHT22;63019;51.080;13.642;2024-02-04T14:00:54;10.40;99.90
74488;DHT22;63019;51.080;13.642;2024-02-04T14:01:56;10.40;99.90
74488;DHT22;63019;51.080;13.642;2024-02-04T14:03:02;10.40;99.90
74488;DHT22;63019;51.080;13.642;2024-02-04T14:04:04;10.30;99.90
74488;DHT22;63019;51.080;13.642;2024-02-04T14:05:07;10.30;99.90
74488;DHT22;63019;51.080;13.642;2024-02-04T14:06:09;10.30;99.90
74488;DHT22;63019;51.080;13.642;2024-02-04T14:07:12;10.30;99.90
74488;DHT22;63019;51.080;13.642;2024-02-04T14:08:14;10.30;99.90
74488;DHT22;63019;51.080;13.642;2024-02-04T14:09:16;10.20;99.90
74488;DHT22;63019;51.080;13.642;2024-02-04T14:10:18;10.20;99.90
74488;DHT22;63019;51.080;13.642;2024-02-04T14:11:20;10.10;99.90
74488;DHT22;63019;51.080;13.642;2024-02-04T14:12:22;10.10;99.90
74488;DHT22;63019;51.080;13.642;2024-02-04T14:13:24;10.10;99.90
74488;DHT22;63019;51.080;13.642;2024-02-04T14:14:25;10.10;99.90
74488;DHT22;63019;51.080;13.642;2024-02-04T14:15:27;10.10;99.90
74488;DHT22;63019;51.080;13.642;2024-02-04T14:16:29;10.00;99.90
74488;DHT22;63019;51.080;13.642;2024-02-04T14:17:31;10.00;99.90
74488;DHT22;63019;51.080;13.642;2024-02-04T14:18:33;10.00;99.90
74488;DHT22;63019;51.080;13.642;2024-02-04T14:19:35;10.00;99.90
74488;DHT22;63019;51.080;13.642;2024-02-04T14:20:37;9.90;99.90
74488;DHT22;63019;51.080;13.642;2024-02-04T14:21:41;9.90;99.90
74488;DHT22;63019;51.080;13.642;2024-02-04T14:22:43;9.90;99.90
74488;DHT22;63019;51.080;13.642;2024-02-04T14:23:46;9.90;99.90
74488;DHT22;63019;51.080;13.642;2024-02-04T14:24:48;9.90;99.90
74488;DHT22;63019;51.080;13.642;2024-02-04T14:25:50;9.90;99.90
74488;DHT22;63019;51.080;13.642;2024-02-04T14:26:59;9.90;99.90
74488;DHT22;63019;51.080;13.642;2024-02-04T14:28:01;9.80;99.90
74488;DHT22;63019;51.080;13.642;2024-02-04T14:29:03;9.80;99.90
74488;DHT22;63019;51.080;13.642;2024-02-04T14:30:05;9.80;99.90
74488;DHT22;63019;51.080;13.642;2024-02-04T14:31:08;9.80;99.90
74488;DHT22;63019;51.080;13.642;2024-02-04T14:32:10;9.80;99.90
74488;DHT22;63019;51.080;13.642;2024-02-04T14:33:12;9.80;99.90
74488;DHT22;63019;51.080;13.642;2024-02-04T14:34:14;9.80;99.90
74488;DHT22;63019;51.080;13.642;2024-02-04T14:35:16;9.80;99.90
74488;DHT22;63019;51.080;13.642;2024-02-04T14:36:19;9.80;99.90
74488;DHT22;63019;51.080;13.642;2024-02-04T14:37:21;9.80;99.90
74488;DHT22;63019;51.080;13.642;2024-02-04T14:38:23;9.80;99.90
74488;DHT22;63019;51.080;13.642;2024-02-04T14:39:25;9.80;99.90
74488;DHT22;63019;51.080;13.642;2024-02-04T14:40:27;9.80;99.90
74488;DHT22;63019;51.080;13.642;2024-02-04T14:41:29;9.80;99.90
74488;DHT22;63019;51.080;13.642;2024-02-04T14:42:31;9.80;99.90
74488;DHT22;63019;51.080;13.642;2024-02-04T14:43:33;9.80;99.90
74488;DHT22;63019;51.080;13.642;2024-02-04T14:44:35;9.80;99.90
74488;DHT22;63019;51.080;13.642;2024-02-04T14:45:38;9.80;99.90
74488;DHT22;63019;51.080;13.642;2024-02-04T14:46:40;9.80;99.90
74488;DHT22;63019;51.080;13.642;2024-02-04T14:47:42;9.80;99.90
74488;DHT22;63019;51.080;13.642;2024-02-04T14:48:44;9.80;99.90
74488;DHT22;63019;51.080;13.642;2024-02-04T14:49:46;9.80;99.90
74488;DHT22;63019;51.080;13.642;2024-02-04T14:50:49;9.80;99.90
74488;DHT22;63019;51.080;13.642;2024-02-04T14:52:04;9.80;99.90
74488;DHT22;63019;51.080;13.642;2024-02-04T14:53:06;9.80;99.90
74488;DHT22;63019;51.080;13.642;2024-02-04T14:54:10;9.80;99.90
74488;DHT22;63019;51.080;13.642;2024-02-04T14:55:13;9.80;99.90
74488;DHT22;63019;51.080;13.642;2024-02-04T14:56:16;9.80;99.90
74488;DHT22;63019;51.080;13.642;2024-02-04T14:57:18;9.80;99.90
74488;DHT22;63019;51.080;13.642;2024-02-04T14:58:20;9.80;99.90
74488;DHT22;63019;51.080;13.642;2024-02-04T14:59:22;9.80;99.90
74488;DHT22;63019;51.080;13.642;2024-02-04T15:00:24;9.80;99.90
74488;DHT22;63019;51.080;13.642;2024-02-04T15:01:28;9.80;99.90
74488;DHT22;63019;51.080;13.642;2024-02-04T15:02:30;9.80;99.90
74488;DHT22;63019;51.080;13.642;2024-02-04T15:03:32;9.80;99.90
74488;DHT22;63019;51.080;13.642;2024-02-04T15:04:34;9.80;99.90
74488;DHT22;63019;51.080;13.642;2024-02-04T15:05:37;9.80;99.90
74488;DHT22;63019;51.080;13.642;2024-02-04T15:06:40;9.80;99.90
74488;DHT22;63019;51.080;13.642;2024-02-04T15:07:42;9.80;99.90
74488;DHT22;63019;51.080;13.642;2024-02-04T15:08:47;9.80;99.90
74488;DHT22;63019;51.080;13.642;2024-02-04T15:09:49;9.70;99.90
74488;DHT22;63019;51.080;13.642;2024-02-04T15:10:52;9.70;99.90
74488;DHT22;63019;51.080;13.642;2024-02-04T15:11:54;9.70;99.90
74488;DHT22;63019;51.080;13.642;2024-02-04T15:12:56;9.70;99.90
74488;DHT22;63019;51.080;13.642;2024-02-04T15:13:58;9.70;99.90
74488;DHT22;63019;51.080;13.642;2024-02-04T15:15:00;9.70;99.90
74488;DHT22;63019;51.080;13.642;2024-02-04T15:16:02;9.70;99.90
74488;DHT22;63019;51.080;13.642;2024-02-04T15:17:06;9.70;99.90
74488;DHT22;63019;51.080;13.642;2024-02-04T15:18:08;9.70;99.90
74488;DHT22;63019;51.080;13.642;2024-02-04T15:19:11;9.70;99.90
74488;DHT22;63019;51.080;13.642;2024-02-04T15:20:13;9.70;99.90
74488;DHT22;63019;51.080;13.642;2024-02-04T15:21:20;9.60;99.90
74488;DHT22;63019;51.080;13.642;2024-02-04T15:22:22;9.60;99.90
74488;DHT22;63019;51.080;13.642;2024-02-04T15:23:25;9.60;99.90
74488;DHT22;63019;51.080;13.642;2024-02-04T15:24:27;9.60;99.90
74488;DHT22;63019;51.080;13.642;2024-02-04T15:25:29;9.50;99.90
74488;DHT22;63019;51.080;13.642;2024-02-04T15:26:35;9.50;99.90
74488;DHT22;63019;51.080;13.642;2024-02-04T15:27:38;9.50;99.90
74488;DHT22;63019;51.080;13.642;2024-02-04T15:28:41;9.50;99.90
74488;DHT22;63019;51.080;13.642;2024-02-04T15:29:43;9.50;99.90
74488;DHT22;63019;51.080;13.642;2024-02-04T15:30:46;9.40;99.90
74488;DHT22;63019;51.080;13.642;2024-02-04T15:31:48;9.40;99.90
74488;DHT22;63019;51.080;13.642;2024-02-04T15:32:51;9.40;99.90
74488;DHT22;63019;51.080;13.642;2024-02-04T15:33:55;9.40;99.90
74488;DHT22;63019;51.080;13.642;2024-02-04T15:34:57;9.40;99.90
74488;DHT22;63019;51.080;13.642;2024-02-04T15:35:59;9.40;99.90
74488;DHT22;63019;51.080;13.642;2024-02-04T15:37:02;9.30;99.90
74488;DHT22;63019;51.080;13.642;2024-02-04T15:38:04;9.30;99.90
74488;DHT22;63019;51.080;13.642;2024-02-04T15:39:06;9.30;99.90
74488;DHT22;63019;51.080;13.642;2024-02-04T15:40:08;9.30;99.90
74488;DHT22;63019;51.080;13.642;2024-02-04T15:41:10;9.30;99.90
74488;DHT22;63019;51.080;13.642;2024-02-04T15:42:12;9.30;99.90
74488;DHT22;63019;51.080;13.642;2024-02-04T15:43:14;9.30;99.90
74488;DHT22;63019;51.080;13.642;2024-02-04T15:44:17;9.20;99.90
74488;DHT22;63019;51.080;13.642;2024-02-04T15:45:20;9.20;99.90
74488;DHT22;63019;51.080;13.642;2024-02-04T15:46:23;9.20;99.90
74488;DHT22;63019;51.080;13.642;2024-02-04T15:47:26;9.20;99.90
74488;DHT22;63019;51.080;13.642;2024-02-04T15:48:30;9.20;99.90
74488;DHT22;63019;51.080;13.642;2024-02-04T15:49:34;9.20;99.90
74488;DHT22;63019;51.080;13.642;2024-02-04T15:50:38;9.10;99.90
74488;DHT22;63019;51.080;13.642;2024-02-04T15:51:40;9.10;99.90
74488;DHT22;63019;51.080;13.642;2024-02-04T15:52:43;9.10;99.90
74488;DHT22;63019;51.080;13.642;2024-02-04T15:53:58;9.10;99.90
74488;DHT22;63019;51.080;13.642;2024-02-04T15:55:03;9.10;99.90
74488;DHT22;63019;51.080;13.642;2024-02-04T15:56:06;9.10;99.90
74488;DHT22;63019;51.080;13.642;2024-02-04T15:57:12;9.10;99.90
74488;DHT22;63019;51.080;13.642;2024-02-04T15:58:15;9.10;99.90
74488;DHT22;63019;51.080;13.642;2024-02-04T15:59:18;9.10;99.90
74488;DHT22;63019;51.080;13.642;2024-02-04T16:00:26;9.10;99.90
74488;DHT22;63019;51.080;13.642;2024-02-04T16:01:29;9.10;99.90
74488;DHT22;63019;51.080;13.642;2024-02-04T16:02:33;9.10;99.90
74488;DHT22;63019;51.080;13.642;2024-02-04T16:03:35;9.10;99.90
74488;DHT22;63019;51.080;13.642;2024-02-04T16:04:37;9.10;99.90
74488;DHT22;63019;51.080;13.642;2024-02-04T16:05:39;9.00;99.90
74488;DHT22;63019;51.080;13.642;2024-02-04T16:06:43;9.00;99.90
74488;DHT22;63019;51.080;13.642;2024-02-04T16:07:46;9.00;99.90
74488;DHT22;63019;51.080;13.642;2024-02-04T16:08:48;9.00;99.90
74488;DHT22;63019;51.080;13.642;2024-02-04T16:09:51;9.00;99.90
74488;DHT22;63019;51.080;13.642;2024-02-04T16:10:55;9.00;99.90
74488;DHT22;63019;51.080;13.642;2024-02-04T16:12:04;9.00;99.90
74488;DHT22;63019;51.080;13.642;2024-02-04T16:13:07;8.90;99.90
74488;DHT22;63019;51.080;13.642;2024-02-04T16:14:12;8.90;99.90
74488;DHT22;63019;51.080;13.642;2024-02-04T16:15:17;8.90;99.90
74488;DHT22;63019;51.080;13.642;2024-02-04T16:16:22;8.90;99.90
74488;DHT22;63019;51.080;13.642;2024-02-04T16:17:32;8.90;99.90
74488;DHT22;63019;51.080;13.642;2024-02-04T16:18:35;8.90;99.90
74488;DHT22;63019;51.080;13.642;2024-02-04T16:19:38;8.90;99.90
74488;DHT22;63019;51.080;13.642;2024-02-04T16:20:40;8.90;99.90
74488;DHT22;63019;51.080;13.642;2024-02-04T16:21:42;8.90;99.90
74488;DHT22;63019;51.080;13.642;2024-02-04T16:22:47;8.90;99.90
74488;DHT22;63019;51.080;13.642;2024-02-04T16:23:49;8.90;99.90
74488;DHT22;63019;51.080;13.642;2024-02-04T16:24:51;8.90;99.90
74488;DHT22;63019;51.080;13.642;2024-02-04T16:25:56;8.90;99.90
74488;DHT22;63019;51.080;13.642;2024-02-04T16:27:00;8.90;99.90
74488;DHT22;63019;51.080;13.642;2024-02-04T16:28:02;8.90;99.90
74488;DHT22;63019;51.080;13.642;2024-02-04T16:29:04;8.90;99.90
74488;DHT22;63019;51.080;13.642;2024-02-04T16:30:07;8.90;99.90
74488;DHT22;63019;51.080;13.642;2024-02-04T16:31:09;8.90;99.90
74488;DHT22;63019;51.080;13.642;2024-02-04T16:32:12;8.90;99.90
74488;DHT22;63019;51.080;13.642;2024-02-04T16:33:16;8.90;99.90
74488;DHT22;63019;51.080;13.642;2024-02-04T16:34:18;8.90;99.90
74488;DHT22;63019;51.080;13.642;2024-02-04T16:35:20;8.90;99.90
74488;DHT22;63019;51.080;13.642;2024-02-04T16:36:22;8.90;99.90
74488;DHT22;63019;51.080;13.642;2024-02-04T16:37:24;8.90;99.90
74488;DHT22;63019;51.080;13.642;2024-02-04T16:38:26;9.00;99.90
74488;DHT22;63019;51.080;13.642;2024-02-04T16:39:29;9.00;99.90
74488;DHT22;63019;51.080;13.642;2024-02-04T16:40:31;9.00;99.90
74488;DHT22;63019;51.080;13.642;2024-02-04T16:41:33;8.90;99.90
74488;DHT22;63019;51.080;13.642;2024-02-04T16:42:35;8.90;99.90
74488;DHT22;63019;51.080;13.642;2024-02-04T16:43:37;8.90;99.90
74488;DHT22;63019;51.080;13.642;2024-02-04T16:44:39;8.90;99.90
74488;DHT22;63019;51.080;13.642;2024-02-04T16:45:41;8.90;99.90
74488;DHT22;63019;51.080;13.642;2024-02-04T16:46:43;8.90;99.90
74488;DHT22;63019;51.080;13.642;2024-02-04T16:47:47;8.90;99.90
74488;DHT22;63019;51.080;13.642;2024-02-04T16:48:51;8.90;99.90
74488;DHT22;63019;51.080;13.642;2024-02-04T16:50:13;8.90;99.90
74488;DHT22;63019;51.080;13.642;2024-02-04T16:51:39;8.90;99.90
74488;DHT22;63019;51.080;13.642;2024-02-04T16:52:41;8.80;99.90
74488;DHT22;63019;51.080;13.642;2024-02-04T16:53:43;8.80;99.90
74488;DHT22;63019;51.080;13.642;2024-02-04T16:54:45;8.80;99.90
74488;DHT22;63019;51.080;13.642;2024-02-04T16:55:47;8.80;99.90
74488;DHT22;63019;51.080;13.642;2024-02-04T16:56:49;8.70;99.90
74488;DHT22;63019;51.080;13.642;2024-02-04T16:57:51;8.70;99.90
74488;DHT22;63019;51.080;13.642;2024-02-04T16:58:53;8.70;99.90
74488;DHT22;63019;51.080;13.642;2024-02-04T16:59:55;8.70;99.90
74488;DHT22;63019;51.080;13.642;2024-02-04T17:00:58;8.70;99.90
74488;DHT22;63019;51.080;13.642;2024-02-04T17:02:31;8.60;99.90
74488;DHT22;63019;51.080;13.642;2024-02-04T17:03:33;8.60;99.90
74488;DHT22;63019;51.080;13.642;2024-02-04T17:04:37;8.60;99.90
74488;DHT22;63019;51.080;13.642;2024-02-04T17:05:39;8.60;99.90
74488;DHT22;63019;51.080;13.642;2024-02-04T17:06:57;8.60;99.90
74488;DHT22;63019;51.080;13.642;2024-02-04T17:07:59;8.50;99.90
74488;DHT22;63019;51.080;13.642;2024-02-04T17:09:01;8.50;99.90
74488;DHT22;63019;51.080;13.642;2024-02-04T17:10:14;8.50;99.90
74488;DHT22;63019;51.080;13.642;2024-02-04T17:11:16;8.50;99.90
74488;DHT22;63019;51.080;13.642;2024-02-04T17:12:21;8.50;99.90
74488;DHT22;63019;51.080;13.642;2024-02-04T17:13:26;8.50;99.90
74488;DHT22;63019;51.080;13.642;2024-02-04T17:14:28;8.50;99.90
74488;DHT22;63019;51.080;13.642;2024-02-04T17:15:30;8.40;99.90
74488;DHT22;63019;51.080;13.642;2024-02-04T17:18:19;8.40;99.90
74488;DHT22;63019;51.080;13.642;2024-02-04T17:19:34;8.40;99.90
74488;DHT22;63019;51.080;13.642;2024-02-04T17:20:47;8.40;99.90
74488;DHT22;63019;51.080;13.642;2024-02-04T17:21:53;8.40;99.90
74488;DHT22;63019;51.080;13.642;2024-02-04T17:23:05;8.40;99.90
74488;DHT22;63019;51.080;13.642;2024-02-04T17:24:24;8.40;99.90
74488;DHT22;63019;51.080;13.642;2024-02-04T17:25:30;8.40;99.90
74488;DHT22;63019;51.080;13.642;2024-02-04T17:26:35;8.40;99.90
74488;DHT22;63019;51.080;13.642;2024-02-04T17:27:39;8.30;99.90
74488;DHT22;63019;51.080;13.642;2024-02-04T17:28:41;8.30;99.90
74488;DHT22;63019;51.080;13.642;2024-02-04T17:29:44;8.30;99.90
74488;DHT22;63019;51.080;13.642;2024-02-04T17:30:47;8.30;99.90
74488;DHT22;63019;51.080;13.642;2024-02-04T17:31:50;8.30;99.90
74488;DHT22;63019;51.080;13.642;2024-02-04T17:32:52;8.30;99.90
74488;DHT22;63019;51.080;13.642;2024-02-04T17:33:55;8.30;99.90
74488;DHT22;63019;51.080;13.642;2024-02-04T17:34:58;8.30;99.90
74488;DHT22;63019;51.080;13.642;2024-02-04T17:36:01;8.30;99.90
74488;DHT22;63019;51.080;13.642;2024-02-04T17:37:03;8.30;99.90
74488;DHT22;63019;51.080;13.642;2024-02-04T17:38:06;8.30;99.90
74488;DHT22;63019;51.080;13.642;2024-02-04T17:39:08;8.30;99.90
74488;DHT22;63019;51.080;13.642;2024-02-04T17:40:10;8.30;99.90
74488;DHT22;63019;51.080;13.642;2024-02-04T17:41:12;8.30;99.90
74488;DHT22;63019;51.080;13.642;2024-02-04T17:42:14;8.30;99.90
74488;DHT22;63019;51.080;13.642;2024-02-04T17:43:16;8.30;99.90
74488;DHT22;63019;51.080;13.642;2024-02-04T17:44:19;8.30;99.90
74488;DHT22;63019;51.080;13.642;2024-02-04T17:45:21;8.30;99.90
74488;DHT22;63019;51.080;13.642;2024-02-04T17:46:23;8.30;99.90
74488;DHT22;63019;51.080;13.642;2024-02-04T17:47:26;8.30;99.90
74488;DHT22;63019;51.080;13.642;2024-02-04T17:48:30;8.30;99.90
74488;DHT22;63019;51.080;13.642;2024-02-04T17:49:33;8.30;99.90
74488;DHT22;63019;51.080;13.642;2024-02-04T17:50:35;8.30;99.90
74488;DHT22;63019;51.080;13.642;2024-02-04T17:51:37;8.30;99.90
74488;DHT22;63019;51.080;13.642;2024-02-04T17:52:39;8.30;99.90
74488;DHT22;63019;51.080;13.642;2024-02-04T17:53:42;8.30;99.90
74488;DHT22;63019;51.080;13.642;2024-02-04T17:54:47;8.30;99.90
74488;DHT22;63019;51.080;13.642;2024-02-04T17:55:48;8.30;99.90
74488;DHT22;63019;51.080;13.642;2024-02-04T17:56:54;8.20;99.90
74488;DHT22;63019;51.080;13.642;2024-02-04T17:57:55;8.20;99.90
74488;DHT22;63019;51.080;13.642;2024-02-04T17:58:59;8.20;99.90
74488;DHT22;63019;51.080;13.642;2024-02-04T18:00:01;8.20;99.90
74488;DHT22;63019;51.080;13.642;2024-02-04T18:01:03;8.20;99.90
74488;DHT22;63019;51.080;13.642;2024-02-04T18:02:06;8.20;99.90
74488;DHT22;63019;51.080;13.642;2024-02-04T18:03:08;8.20;99.90
74488;DHT22;63019;51.080;13.642;2024-02-04T18:04:10;8.20;99.90
74488;DHT22;63019;51.080;13.642;2024-02-04T18:05:12;8.20;99.90
74488;DHT22;63019;51.080;13.642;2024-02-04T18:06:15;8.20;99.90
74488;DHT22;63019;51.080;13.642;2024-02-04T18:07:17;8.20;99.90
74488;DHT22;63019;51.080;13.642;2024-02-04T18:08:21;8.20;99.90
74488;DHT22;63019;51.080;13.642;2024-02-04T18:09:23;8.20;99.90
74488;DHT22;63019;51.080;13.642;2024-02-04T18:10:26;8.20;99.90
74488;DHT22;63019;51.080;13.642;2024-02-04T18:11:28;8.20;99.90
74488;DHT22;63019;51.080;13.642;2024-02-04T18:12:30;8.20;99.90
74488;DHT22;63019;51.080;13.642;2024-02-04T18:13:34;8.20;99.90
74488;DHT22;63019;51.080;13.642;2024-02-04T18:14:39;8.20;99.90
74488;DHT22;63019;51.080;13.642;2024-02-04T18:15:41;8.20;99.90
74488;DHT22;63019;51.080;13.642;2024-02-04T18:16:43;8.20;99.90
74488;DHT22;63019;51.080;13.642;2024-02-04T18:17:45;8.20;99.90
74488;DHT22;63019;51.080;13.642;2024-02-04T18:18:49;8.10;99.90
74488;DHT22;63019;51.080;13.642;2024-02-04T18:19:51;8.10;99.90
74488;DHT22;63019;51.080;13.642;2024-02-04T18:20:53;8.10;99.90
74488;DHT22;63019;51.080;13.642;2024-02-04T18:21:55;8.10;99.90
74488;DHT22;63019;51.080;13.642;2024-02-04T18:22:56;8.10;99.90
74488;DHT22;63019;51.080;13.642;2024-02-04T18:23:58;8.10;99.90
74488;DHT22;63019;51.080;13.642;2024-02-04T18:25:02;8.10;99.90
74488;DHT22;63019;51.080;13.642;2024-02-04T18:26:06;8.10;99.90
74488;DHT22;63019;51.080;13.642;2024-02-04T18:27:09;8.10;99.90
74488;DHT22;63019;51.080;13.642;2024-02-04T18:28:13;8.10;99.90
74488;DHT22;63019;51.080;13.642;2024-02-04T18:29:16;8.10;99.90
74488;DHT22;63019;51.080;13.642;2024-02-04T18:30:18;8.10;99.90
74488;DHT22;63019;51.080;13.642;2024-02-04T18:31:24;8.10;99.90
74488;DHT22;63019;51.080;13.642;2024-02-04T18:32:26;8.10;99.90
74488;DHT22;63019;51.080;13.642;2024-02-04T18:33:29;8.10;99.90
74488;DHT22;63019;51.080;13.642;2024-02-04T18:34:32;8.10;99.90
74488;DHT22;63019;51.080;13.642;2024-02-04T18:35:35;8.10;99.90
74488;DHT22;63019;51.080;13.642;2024-02-04T18:36:38;8.10;99.90
74488;DHT22;63019;51.080;13.642;2024-02-04T18:37:41;8.10;99.90
74488;DHT22;63019;51.080;13.642;2024-02-04T18:38:43;8.10;99.90
74488;DHT22;63019;51.080;13.642;2024-02-04T18:39:46;8.10;99.90
74488;DHT22;63019;51.080;13.642;2024-02-04T18:40:49;8.10;99.90
74488;DHT22;63019;51.080;13.642;2024-02-04T18:41:52;8.10;99.90
74488;DHT22;63019;51.080;13.642;2024-02-04T18:42:54;8.10;99.90
74488;DHT22;63019;51.080;13.642;2024-02-04T18:43:59;8.10;99.90
74488;DHT22;63019;51.080;13.642;2024-02-04T18:45:02;8.20;99.90
74488;DHT22;63019;51.080;13.642;2024-02-04T18:46:06;8.20;99.90
74488;DHT22;63019;51.080;13.642;2024-02-04T18:47:11;8.20;99.90
74488;DHT22;63019;51.080;13.642;2024-02-04T18:48:13;8.20;99.90
74488;DHT22;63019;51.080;13.642;2024-02-04T18:49:16;8.20;99.90
74488;DHT22;63019;51.080;13.642;2024-02-04T18:50:28;8.20;99.90
74488;DHT22;63019;51.080;13.642;2024-02-04T18:51:48;8.20;99.90
74488;DHT22;63019;51.080;13.642;2024-02-04T18:52:53;8.20;99.90
74488;DHT22;63019;51.080;13.642;2024-02-04T18:54:06;8.20;99.90
74488;DHT22;63019;51.080;13.642;2024-02-04T18:55:09;8.20;99.90
74488;DHT22;63019;51.080;13.642;2024-02-04T18:56:12;8.20;99.90
74488;DHT22;63019;51.080;13.642;2024-02-04T18:57:18;8.20;99.90
74488;DHT22;63019;51.080;13.642;2024-02-04T18:58:20;8.20;99.90
74488;DHT22;63019;51.080;13.642;2024-02-04T18:59:23;8.20;99.90
74488;DHT22;63019;51.080;13.642;2024-02-04T19:00:25;8.20;99.90
74488;DHT22;63019;51.080;13.642;2024-02-04T19:01:34;8.20;99.90
74488;DHT22;63019;51.080;13.642;2024-02-04T19:02:36;8.20;99.90
74488;DHT22;63019;51.080;13.642;2024-02-04T19:03:38;8.20;99.90
74488;DHT22;63019;51.080;13.642;2024-02-04T19:04:41;8.20;99.90
74488;DHT22;63019;51.080;13.642;2024-02-04T19:05:44;8.20;99.90
74488;DHT22;63019;51.080;13.642;2024-02-04T19:06:47;8.20;99.90
74488;DHT22;63019;51.080;13.642;2024-02-04T19:07:51;8.20;99.90
74488;DHT22;63019;51.080;13.642;2024-02-04T19:08:54;8.20;99.90
74488;DHT22;63019;51.080;13.642;2024-02-04T19:09:57;8.20;99.90
74488;DHT22;63019;51.080;13.642;2024-02-04T19:11:00;8.20;99.90
74488;DHT22;63019;51.080;13.642;2024-02-04T19:12:03;8.20;99.90
74488;DHT22;63019;51.080;13.642;2024-02-04T19:13:06;8.20;99.90
74488;DHT22;63019;51.080;13.642;2024-02-04T19:14:10;8.20;99.90
74488;DHT22;63019;51.080;13.642;2024-02-04T19:15:14;8.20;99.90
74488;DHT22;63019;51.080;13.642;2024-02-04T19:16:23;8.20;99.90
74488;DHT22;63019;51.080;13.642;2024-02-04T19:17:26;8.20;99.90
74488;DHT22;63019;51.080;13.642;2024-02-04T19:18:28;8.20;99.90
74488;DHT22;63019;51.080;13.642;2024-02-04T19:19:36;8.20;99.90
74488;DHT22;63019;51.080;13.642;2024-02-04T19:20:39;8.20;99.90